Terminal Aerodrome Forecast
Issued by NWS

Home | Current Version | Previous Version | Graphics & Text | Print | Product List | Glossary On
Versions: 1 2 3 4 5 6 7 8 9 10 11 12 13
000
FTUS43 KTOP 300500
TAFMHK
TAF
KMHK 300520Z 3006/0106 17010KT P6SM SCT060
     FM301500 18012G22KT P6SM VCSH BKN050 BKN100
     FM010000 16008KT P6SM VCTS BKN080CB=

USA.gov is the U.S. government's official web portal to all federal, state and local government web resources and services.